メインページ
METAR-TAF:

METAR-TAF

空港 :

アンマン, ヨルダン

緯度: 31-59N, 経度: 035-59E, 海抜: 767m

現時点の気象観測

当レポートは54分前の23:00(UTC)に作成
西の風 3kt
気温 12°C
湿度 88%
気圧 1011 hPa
視程: 5000m

METAR: OJAM 142300Z 26003KT 5000 BR NSC 12/10 Q1011 NOSIG

時間: 01:54 (23:54 UTC)

予報

当レポートは1時間4分前の22:50(UTC)に作成
予報は15日の 00時(UTC)から 16日の 06時(UTC)まで有効
変向風 2kt
視程: 5000m
15日の 01時(UTC)から 15日の 06時(UTC)まで一時的に
視程: 0800m
15日の 08時(UTC)から 15日の 12時(UTC)まで一時的に
西の風 14kt
視程: 3000m
高度2500ftの雲はほとんどない, 塔状積雲.
高度3000ftの千切れ雲あり
弱いにわか雨

TAF: OJAM 142250Z 1500/1606 VRB02KT 5000 BR NSC TEMPO 1501/1506 0800 FG TEMPO 1508/1512 27014KT 3000 -SHRA FEW025TCU BKN030

4,000以上の空港の気象観測と天気予報(METAR報とTAF報)

利用可能な観測所は地図上に黄色い丸と赤い丸で示す。

丸の上にカーソルを重ねると観測所名を参照できる。

次にクリックすると気象観測と天気予報を参照できる。

マップの切り替え:黒色「×」印の緑ボタンをクリックして拡大、「-」印の緑ボタンをクリックして縮小、緑色の三角印をクリックして隣りの地図に切り替え


METAR-TAF: